Terminal Aerodrome Forecast
Issued by NWS Atlanta, GA

Home | Current Version | Previous Version | Text Only | Print | Product List | Glossary On
Versions: 1 2 3 4 5 6 7 8 9 10 11 12 13 14 15 16
500
FTUS42 KFFC 221156 AAA
TAFMCN
TAF AMD
KMCN 221156Z 2212/2312 08007KT P6SM VCSH BKN035
     FM221300 08011KT P6SM -SHRA OVC022
     FM222100 10014G23KT P6SM SHRA OVC015
     FM230200 10017G26KT 2SM SHRA BR OVC008
      TEMPO 2302/2306 5SM -TSRA BR BKN015CB
     FM231000 11008KT P6SM VCSH BKN008=

USA.gov is the U.S. government's official web portal to all federal, state and local government web resources and services.